createdAt,value
2023-04-20T00:00:07.426Z,19.57
2023-04-20T00:01:07.466Z,19.56
2023-04-20T00:02:07.634Z,19.56
2023-04-20T00:03:07.779Z,19.56
2023-04-20T00:04:07.693Z,19.56
2023-04-20T00:05:07.665Z,19.55
2023-04-20T00:06:07.687Z,19.55
2023-04-20T00:07:07.717Z,19.55
2023-04-20T00:08:07.758Z,19.54
2023-04-20T00:09:07.808Z,19.54
2023-04-20T00:10:07.849Z,19.53
2023-04-20T00:11:07.898Z,19.54
2023-04-20T00:12:08.632Z,19.52
2023-04-20T00:13:08.049Z,19.53
2023-04-20T00:14:08.136Z,19.52
2023-04-20T00:15:08.235Z,19.52
2023-04-20T00:16:08.334Z,19.52
2023-04-20T00:17:08.602Z,19.51
2023-04-20T00:18:08.677Z,19.52
2023-04-20T00:19:08.629Z,19.52
2023-04-20T00:20:08.740Z,19.51
2023-04-20T00:21:08.839Z,19.51
2023-04-20T00:22:08.940Z,19.50
2023-04-20T00:23:09.055Z,19.50
2023-04-20T00:24:10.149Z,19.49
2023-04-20T00:25:09.246Z,19.49
2023-04-20T00:26:09.326Z,19.49
2023-04-20T00:27:09.429Z,19.49
2023-04-20T00:28:09.542Z,19.48
2023-04-20T00:29:09.629Z,19.48
2023-04-20T00:30:09.797Z,19.48
2023-04-20T00:31:09.835Z,19.49
2023-04-20T00:32:09.884Z,19.48
2023-04-20T00:33:09.990Z,19.48
2023-04-20T00:34:10.037Z,19.47
2023-04-20T00:35:10.059Z,19.46
2023-04-20T00:36:10.092Z,19.46
2023-04-20T00:37:10.132Z,19.46
2023-04-20T00:38:10.160Z,19.45
2023-04-20T00:39:10.213Z,19.45
2023-04-20T00:40:10.247Z,19.44
2023-04-20T00:41:10.289Z,19.44
2023-04-20T00:42:10.330Z,19.44
2023-04-20T00:43:10.378Z,19.43
2023-04-20T00:44:10.470Z,19.44
2023-04-20T00:45:10.544Z,19.43
2023-04-20T00:46:10.685Z,19.43
2023-04-20T00:47:10.763Z,19.43
2023-04-20T00:48:10.864Z,19.43
2023-04-20T00:49:10.982Z,19.42
2023-04-20T00:50:12.004Z,19.42
2023-04-20T00:51:11.041Z,19.42
2023-04-20T00:52:11.084Z,19.42
2023-04-20T00:53:11.111Z,19.41
2023-04-20T00:54:11.163Z,19.42
2023-04-20T00:55:11.200Z,19.41
2023-04-20T00:56:11.241Z,19.40
2023-04-20T00:57:11.277Z,19.40
2023-04-20T00:58:11.315Z,19.40
2023-04-20T00:59:11.408Z,19.40
2023-04-20T01:00:11.507Z,19.39
2023-04-20T01:01:11.714Z,19.39
2023-04-20T01:02:13.686Z,19.39
2023-04-20T01:03:11.869Z,19.38
2023-04-20T01:04:11.961Z,19.39
2023-04-20T01:05:12.010Z,19.38
2023-04-20T01:06:12.126Z,19.38
2023-04-20T01:07:12.215Z,19.38
2023-04-20T01:08:12.305Z,19.38
2023-04-20T01:09:12.395Z,19.37
2023-04-20T01:10:12.476Z,19.37
2023-04-20T01:11:12.547Z,19.37
2023-04-20T01:12:13.161Z,19.37
2023-04-20T01:13:12.616Z,19.37
2023-04-20T01:14:12.643Z,19.36
2023-04-20T01:15:12.677Z,19.36
2023-04-20T01:16:12.817Z,19.35
2023-04-20T01:17:12.744Z,19.35
2023-04-20T01:18:12.781Z,19.35
2023-04-20T01:19:12.823Z,19.34
2023-04-20T01:20:12.855Z,19.34
2023-04-20T01:21:12.946Z,19.34
2023-04-20T01:22:12.923Z,19.33
2023-04-20T01:23:12.963Z,19.34
2023-04-20T01:24:13.066Z,19.33
2023-04-20T01:25:13.171Z,19.33
2023-04-20T01:26:13.266Z,19.33
2023-04-20T01:27:13.289Z,19.32
2023-04-20T01:28:13.333Z,19.31
2023-04-20T01:29:13.373Z,19.31
2023-04-20T01:30:13.418Z,19.31
2023-04-20T01:31:13.571Z,19.31
2023-04-20T01:32:13.479Z,19.32
2023-04-20T01:33:13.497Z,19.30
2023-04-20T01:34:13.527Z,19.31
2023-04-20T01:35:13.551Z,19.31
2023-04-20T01:36:13.585Z,19.31
2023-04-20T01:37:13.616Z,19.30
2023-04-20T01:38:13.646Z,19.30
2023-04-20T01:39:13.721Z,19.29
2023-04-20T01:40:13.699Z,19.29
2023-04-20T01:41:13.709Z,19.29
2023-04-20T01:42:13.743Z,19.29
2023-04-20T01:43:13.772Z,19.28
2023-04-20T01:44:13.817Z,19.29
2023-04-20T01:45:13.831Z,19.28
2023-04-20T01:46:13.946Z,19.27
2023-04-20T01:47:14.893Z,19.27
2023-04-20T01:48:13.913Z,19.27
2023-04-20T01:49:13.941Z,19.27
2023-04-20T01:50:13.975Z,19.27
2023-04-20T01:51:13.999Z,19.27
2023-04-20T01:52:14.018Z,19.26
2023-04-20T01:53:14.056Z,19.26
2023-04-20T01:54:14.076Z,19.26
2023-04-20T01:55:14.117Z,19.26
2023-04-20T01:56:14.138Z,19.25
2023-04-20T01:57:14.147Z,19.25
2023-04-20T01:58:14.187Z,19.25
2023-04-20T01:59:15.326Z,19.25
2023-04-20T02:00:14.231Z,19.24
2023-04-20T02:01:14.298Z,19.24
2023-04-20T02:02:14.329Z,19.24
2023-04-20T02:03:14.416Z,19.23
2023-04-20T02:04:14.360Z,19.23
2023-04-20T02:05:14.358Z,19.23
2023-04-20T02:06:14.375Z,19.22
2023-04-20T02:07:14.403Z,19.22
2023-04-20T02:08:14.435Z,19.22
2023-04-20T02:09:14.517Z,19.22
2023-04-20T02:10:14.496Z,19.22
2023-04-20T02:11:14.497Z,19.21
2023-04-20T02:12:14.528Z,19.22
2023-04-20T02:13:14.584Z,19.21
2023-04-20T02:14:14.583Z,19.22
2023-04-20T02:15:14.629Z,19.21
2023-04-20T02:16:14.671Z,19.21
2023-04-20T02:17:14.749Z,19.21
2023-04-20T02:18:14.737Z,19.20
2023-04-20T02:19:14.852Z,19.20
2023-04-20T02:20:14.805Z,19.20
2023-04-20T02:21:14.877Z,19.20
2023-04-20T02:22:14.953Z,19.20
2023-04-20T02:23:15.011Z,19.19
2023-04-20T02:24:15.067Z,19.19
2023-04-20T02:25:15.129Z,19.19
2023-04-20T02:26:15.204Z,19.19
2023-04-20T02:27:15.293Z,19.18
2023-04-20T02:28:15.387Z,19.18
2023-04-20T02:29:15.702Z,19.18
2023-04-20T02:30:15.513Z,19.17
2023-04-20T02:31:15.601Z,19.16
2023-04-20T02:32:15.613Z,19.17
2023-04-20T02:33:15.654Z,19.16
2023-04-20T02:34:15.673Z,19.16
2023-04-20T02:35:15.754Z,19.16
2023-04-20T02:36:15.805Z,19.16
2023-04-20T02:37:15.855Z,19.15
2023-04-20T02:38:15.907Z,19.15
2023-04-20T02:39:16.413Z,19.15
2023-04-20T02:40:15.982Z,19.14
2023-04-20T02:41:15.974Z,19.15
2023-04-20T02:42:15.991Z,19.13
2023-04-20T02:43:16.022Z,19.13
2023-04-20T02:44:16.057Z,19.12
2023-04-20T02:45:16.072Z,19.11
2023-04-20T02:46:16.166Z,19.11
2023-04-20T02:47:16.136Z,19.11
2023-04-20T02:48:16.165Z,19.12
2023-04-20T02:49:16.405Z,19.12
2023-04-20T02:50:16.236Z,19.11
2023-04-20T02:51:16.245Z,19.11
2023-04-20T02:52:16.280Z,19.11
2023-04-20T02:53:16.308Z,19.11
2023-04-20T02:54:16.346Z,19.10
2023-04-20T02:55:16.367Z,19.10
2023-04-20T02:56:16.412Z,19.10
2023-04-20T02:57:16.433Z,19.11
2023-04-20T02:58:16.468Z,19.10
2023-04-20T02:59:16.654Z,19.09
2023-04-20T03:00:16.517Z,19.09
2023-04-20T03:01:16.578Z,19.09
2023-04-20T03:02:16.651Z,19.09
2023-04-20T03:03:16.685Z,19.09
2023-04-20T03:04:16.763Z,19.09
2023-04-20T03:05:16.747Z,19.09
2023-04-20T03:06:17.718Z,19.09
2023-04-20T03:07:16.973Z,19.09
2023-04-20T03:08:16.934Z,19.08
2023-04-20T03:09:17.277Z,19.08
2023-04-20T03:10:17.024Z,19.07
2023-04-20T03:11:17.059Z,19.07
2023-04-20T03:12:17.103Z,19.06
2023-04-20T03:13:17.342Z,19.06
2023-04-20T03:14:17.223Z,19.07
2023-04-20T03:15:17.258Z,19.07
2023-04-20T03:16:17.367Z,19.06
2023-04-20T03:17:17.370Z,19.05
2023-04-20T03:18:17.404Z,19.04
2023-04-20T03:19:17.551Z,19.05
2023-04-20T03:20:17.471Z,19.04
2023-04-20T03:21:17.490Z,19.03
2023-04-20T03:22:17.512Z,19.04
2023-04-20T03:23:17.545Z,19.03
2023-04-20T03:24:17.590Z,19.03
2023-04-20T03:25:17.620Z,19.03
2023-04-20T03:26:17.646Z,19.02
2023-04-20T03:27:17.668Z,19.03
2023-04-20T03:28:17.706Z,19.02
2023-04-20T03:29:18.098Z,19.02
2023-04-20T03:30:17.756Z,19.01
2023-04-20T03:31:17.796Z,19.01
2023-04-20T03:32:17.821Z,19.01
2023-04-20T03:33:17.839Z,19.01
2023-04-20T03:34:17.880Z,19.01
2023-04-20T03:35:17.905Z,19.00
2023-04-20T03:36:17.929Z,19.00
2023-04-20T03:37:17.958Z,18.99
2023-04-20T03:38:17.991Z,18.99
2023-04-20T03:39:18.442Z,18.99
2023-04-20T03:40:18.050Z,18.97
2023-04-20T03:41:18.086Z,18.97
2023-04-20T03:42:18.107Z,18.97
2023-04-20T03:43:18.141Z,18.96
2023-04-20T03:44:18.154Z,18.97
2023-04-20T03:45:18.187Z,18.97
2023-04-20T03:46:18.307Z,18.96
2023-04-20T03:47:18.227Z,18.95
2023-04-20T03:48:18.258Z,18.96
2023-04-20T03:49:18.422Z,18.95
2023-04-20T03:50:18.302Z,18.94
2023-04-20T03:51:19.228Z,18.95
2023-04-20T03:52:18.344Z,18.94
2023-04-20T03:53:18.367Z,18.94
2023-04-20T03:54:18.390Z,18.94
2023-04-20T03:55:18.435Z,18.94
2023-04-20T03:56:18.453Z,18.95
2023-04-20T03:57:18.464Z,18.93
2023-04-20T03:58:18.483Z,18.93
2023-04-20T03:59:18.674Z,18.92
2023-04-20T04:00:18.547Z,18.92
2023-04-20T04:01:18.577Z,18.92
2023-04-20T04:02:18.684Z,18.92
2023-04-20T04:03:18.959Z,18.91
2023-04-20T04:05:18.718Z,18.91
2023-04-20T04:06:18.714Z,18.91
2023-04-20T04:07:18.738Z,18.90
2023-04-20T04:08:18.759Z,18.90
2023-04-20T04:09:19.014Z,18.90
2023-04-20T04:10:18.849Z,18.89
2023-04-20T04:11:18.849Z,18.89
2023-04-20T04:12:18.887Z,18.90
2023-04-20T04:13:18.904Z,18.89
2023-04-20T04:14:20.734Z,18.90
2023-04-20T04:15:18.965Z,18.89
2023-04-20T04:16:19.038Z,18.89
2023-04-20T04:17:19.020Z,18.89
2023-04-20T04:18:19.052Z,18.88
2023-04-20T04:19:19.307Z,18.87
2023-04-20T04:20:19.115Z,18.87
2023-04-20T04:21:19.143Z,18.87
2023-04-20T04:22:19.167Z,18.87
2023-04-20T04:23:19.195Z,18.87
2023-04-20T04:24:19.221Z,18.87
2023-04-20T04:25:19.256Z,18.86
2023-04-20T04:26:19.315Z,18.86
2023-04-20T04:27:19.326Z,18.85
2023-04-20T04:28:20.337Z,18.85
2023-04-20T04:29:19.876Z,18.85
2023-04-20T04:30:19.416Z,18.85
2023-04-20T04:31:19.525Z,18.85
2023-04-20T04:32:20.544Z,18.84
2023-04-20T04:33:19.559Z,18.84
2023-04-20T04:34:19.551Z,18.83
2023-04-20T04:35:19.633Z,18.83
2023-04-20T04:36:19.606Z,18.83
2023-04-20T04:37:19.644Z,18.82
2023-04-20T04:38:19.699Z,18.83
2023-04-20T04:39:19.808Z,18.82
2023-04-20T04:40:19.728Z,18.81
2023-04-20T04:41:19.768Z,18.81
2023-04-20T04:42:19.801Z,18.82
2023-04-20T04:43:20.826Z,18.80
2023-04-20T04:44:20.739Z,18.79
2023-04-20T04:45:19.894Z,18.79
2023-04-20T04:46:19.975Z,18.78
2023-04-20T04:47:20.959Z,18.78
2023-04-20T04:48:19.979Z,18.78
2023-04-20T04:49:20.197Z,18.78
2023-04-20T04:50:20.010Z,18.78
2023-04-20T04:51:20.053Z,18.77
2023-04-20T04:52:20.044Z,18.78
2023-04-20T04:53:20.079Z,18.77
2023-04-20T04:54:20.113Z,18.77
2023-04-20T04:55:20.140Z,18.78
2023-04-20T04:56:20.177Z,18.77
2023-04-20T04:57:20.204Z,18.77
2023-04-20T04:58:20.232Z,18.76
2023-04-20T04:59:20.297Z,18.76
2023-04-20T05:00:20.321Z,18.75
2023-04-20T05:01:21.276Z,18.76
2023-04-20T05:02:20.607Z,18.75
2023-04-20T05:03:20.485Z,18.75
2023-04-20T05:04:20.536Z,18.75
2023-04-20T05:05:20.455Z,18.75
2023-04-20T05:06:20.485Z,18.74
2023-04-20T05:07:20.518Z,18.74
2023-04-20T05:08:20.546Z,18.75
2023-04-20T05:09:20.815Z,18.74
2023-04-20T05:10:20.630Z,18.74
2023-04-20T05:11:20.653Z,18.74
2023-04-20T05:12:20.661Z,18.73
2023-04-20T05:13:20.687Z,18.73
2023-04-20T05:14:20.718Z,18.73
2023-04-20T05:15:20.746Z,18.72
2023-04-20T05:16:20.834Z,18.73
2023-04-20T05:17:20.806Z,18.72
2023-04-20T05:18:20.878Z,18.72
2023-04-20T05:19:20.851Z,18.72
2023-04-20T05:20:20.863Z,18.72
2023-04-20T05:21:20.901Z,18.74
2023-04-20T05:22:20.929Z,18.74
2023-04-20T05:23:20.957Z,18.74
2023-04-20T05:24:20.984Z,18.75
2023-04-20T05:25:21.002Z,18.77
2023-04-20T05:26:21.031Z,18.81
2023-04-20T05:27:21.045Z,18.83
2023-04-20T05:28:21.077Z,18.86
2023-04-20T05:29:23.753Z,18.90
2023-04-20T05:30:22.093Z,18.92
2023-04-20T05:31:21.185Z,18.95
2023-04-20T05:32:21.270Z,18.99
2023-04-20T05:33:21.217Z,19.01
2023-04-20T05:34:21.231Z,19.05
2023-04-20T05:35:21.414Z,19.08
2023-04-20T05:36:21.270Z,19.10
2023-04-20T05:37:21.292Z,19.12
2023-04-20T05:38:21.304Z,19.15
2023-04-20T05:39:22.276Z,19.18
2023-04-20T05:40:21.361Z,19.19
2023-04-20T05:41:21.378Z,19.22
2023-04-20T05:42:21.401Z,19.26
2023-04-20T05:43:21.442Z,19.28
2023-04-20T05:44:21.455Z,19.32
2023-04-20T05:45:21.462Z,19.34
2023-04-20T05:46:21.598Z,19.35
2023-04-20T05:47:21.589Z,19.37
2023-04-20T05:48:21.672Z,19.39
2023-04-20T05:49:21.682Z,19.41
2023-04-20T05:50:24.245Z,19.42
2023-04-20T05:51:21.892Z,19.44
2023-04-20T05:52:22.732Z,19.47
2023-04-20T05:53:22.016Z,19.49
2023-04-20T05:54:22.260Z,19.51
2023-04-20T05:55:22.985Z,19.52
2023-04-20T05:56:22.125Z,19.53
2023-04-20T05:57:22.120Z,19.54
2023-04-20T05:58:22.148Z,19.55
2023-04-20T05:59:22.188Z,19.56
2023-04-20T06:00:25.218Z,19.58
2023-04-20T06:01:22.205Z,19.60
2023-04-20T06:02:22.378Z,19.61
2023-04-20T06:03:22.556Z,19.62
2023-04-20T06:04:22.612Z,19.64
2023-04-20T06:05:22.361Z,19.65
2023-04-20T06:06:22.310Z,19.66
2023-04-20T06:07:22.340Z,19.66
2023-04-20T06:08:22.348Z,19.68
2023-04-20T06:09:30.352Z,19.69
2023-04-20T06:10:22.395Z,19.69
2023-04-20T06:11:22.405Z,19.72
2023-04-20T06:12:23.439Z,19.72
2023-04-20T06:13:22.431Z,19.74
2023-04-20T06:14:22.454Z,19.75
2023-04-20T06:15:22.472Z,19.75
2023-04-20T06:16:22.548Z,19.76
2023-04-20T06:17:22.550Z,19.77
2023-04-20T06:18:22.530Z,19.78
2023-04-20T06:19:22.553Z,19.80
2023-04-20T06:20:22.563Z,19.81
2023-04-20T06:21:22.580Z,19.83
2023-04-20T06:22:22.600Z,19.90
2023-04-20T06:23:22.623Z,19.89
2023-04-20T06:24:24.266Z,19.87
2023-04-20T06:25:22.764Z,19.84
2023-04-20T06:26:22.693Z,19.82
2023-04-20T06:27:22.795Z,19.82
2023-04-20T06:28:22.858Z,19.81
2023-04-20T06:29:22.922Z,19.80
2023-04-20T06:30:22.968Z,19.81
2023-04-20T06:31:24.025Z,19.82
2023-04-20T06:32:23.024Z,19.83
2023-04-20T06:33:23.011Z,19.83
2023-04-20T06:34:23.031Z,19.84
2023-04-20T06:35:37.755Z,19.85
2023-04-20T06:36:23.097Z,19.84
2023-04-20T06:37:23.794Z,19.85
2023-04-20T06:38:23.080Z,19.86
2023-04-20T06:39:23.097Z,19.87
2023-04-20T06:40:23.098Z,19.88
2023-04-20T06:41:23.101Z,19.87
2023-04-20T06:42:23.175Z,19.90
2023-04-20T06:43:25.760Z,19.89
2023-04-20T06:44:23.372Z,19.90
2023-04-20T06:45:23.417Z,19.92
2023-04-20T06:46:23.476Z,19.92
2023-04-20T06:47:23.531Z,19.92
2023-04-20T06:48:32.272Z,19.92
2023-04-20T06:49:24.503Z,19.91
2023-04-20T06:50:23.517Z,19.92
2023-04-20T06:51:25.282Z,19.92
2023-04-20T06:52:24.282Z,19.91
2023-04-20T06:53:24.757Z,19.91
2023-04-20T06:54:23.810Z,19.92
2023-04-20T06:55:23.819Z,19.91
2023-04-20T06:56:23.857Z,19.92
2023-04-20T06:57:23.864Z,19.93
2023-04-20T06:58:23.876Z,19.94
2023-04-20T06:59:23.905Z,19.93
2023-04-20T07:00:23.962Z,19.92
2023-04-20T07:01:24.007Z,19.92
2023-04-20T07:02:24.108Z,19.94
2023-04-20T07:03:24.211Z,19.95
2023-04-20T07:04:24.099Z,19.96
2023-04-20T07:05:24.082Z,19.97
2023-04-20T07:06:24.093Z,19.98
2023-04-20T07:07:24.187Z,19.99
2023-04-20T07:08:24.133Z,20.00
2023-04-20T07:09:24.153Z,20.02
2023-04-20T07:10:24.160Z,20.04
2023-04-20T07:11:24.225Z,20.05
2023-04-20T07:12:24.246Z,20.05
2023-04-20T07:13:24.229Z,20.07
2023-04-20T07:14:24.247Z,20.08
2023-04-20T07:15:24.282Z,20.09
2023-04-20T07:16:24.354Z,20.12
2023-04-20T07:17:24.393Z,20.14
2023-04-20T07:18:24.368Z,20.15
2023-04-20T07:19:24.402Z,20.13
2023-04-20T07:20:24.458Z,20.13
2023-04-20T07:21:25.244Z,20.07
2023-04-20T07:22:24.475Z,20.03
2023-04-20T07:23:24.519Z,19.98
2023-04-20T07:24:24.697Z,19.95
2023-04-20T07:25:24.571Z,19.91
2023-04-20T07:26:24.593Z,19.88
2023-04-20T07:27:24.624Z,19.85
2023-04-20T07:28:24.692Z,19.84
2023-04-20T07:29:24.708Z,19.83
2023-04-20T07:30:24.750Z,19.81
2023-04-20T07:31:24.809Z,19.79
2023-04-20T07:32:24.863Z,19.76
2023-04-20T07:33:24.861Z,19.74
2023-04-20T07:34:25.696Z,19.73
2023-04-20T07:35:24.956Z,19.72
2023-04-20T07:36:25.009Z,19.70
2023-04-20T07:37:26.453Z,19.69
2023-04-20T07:38:25.100Z,19.68
2023-04-20T07:39:25.146Z,19.67
2023-04-20T07:40:25.229Z,19.66
2023-04-20T07:41:25.245Z,19.65
2023-04-20T07:42:25.294Z,19.65
2023-04-20T07:43:25.343Z,19.65
2023-04-20T07:44:25.410Z,19.65
2023-04-20T07:45:25.559Z,19.65
2023-04-20T07:46:25.591Z,19.66
2023-04-20T07:47:25.603Z,19.66
2023-04-20T07:48:25.638Z,19.66
2023-04-20T07:49:26.201Z,19.67
2023-04-20T07:50:25.758Z,19.69
2023-04-20T07:51:25.792Z,19.69
2023-04-20T07:52:25.872Z,19.70
2023-04-20T07:53:25.880Z,19.71
2023-04-20T07:54:25.954Z,19.72
2023-04-20T07:55:25.987Z,19.72
2023-04-20T07:56:26.102Z,19.72
2023-04-20T07:57:26.114Z,19.71
2023-04-20T07:58:26.154Z,19.71
2023-04-20T07:59:26.210Z,19.70
2023-04-20T08:00:26.286Z,19.70
2023-04-20T08:01:26.354Z,19.70
2023-04-20T08:02:26.445Z,19.68
2023-04-20T08:03:26.515Z,19.68
2023-04-20T08:04:26.715Z,19.67
2023-04-20T08:05:26.718Z,19.67
2023-04-20T08:06:26.587Z,19.67
2023-04-20T08:07:26.648Z,19.66
2023-04-20T08:08:26.698Z,19.64
2023-04-20T08:09:26.756Z,19.64
2023-04-20T08:10:26.823Z,19.62
2023-04-20T08:11:27.003Z,19.61
2023-04-20T08:12:26.914Z,19.62
2023-04-20T08:13:37.803Z,19.58
2023-04-20T08:14:45.792Z,19.03
2023-04-20T08:15:45.795Z,18.78
2023-04-20T08:16:45.851Z,18.76
2023-04-20T08:17:53.489Z,18.83
2023-04-20T08:18:45.855Z,18.91
2023-04-20T08:19:46.165Z,19.00
2023-04-20T08:20:45.954Z,19.06
2023-04-20T08:21:46.474Z,19.12
2023-04-20T08:22:45.923Z,19.18
2023-04-20T08:23:45.927Z,19.22
2023-04-20T08:24:45.923Z,19.26
2023-04-20T08:25:45.919Z,19.30
2023-04-20T08:26:45.930Z,19.31
2023-04-20T08:27:45.930Z,19.34
2023-04-20T08:28:45.918Z,19.36
2023-04-20T08:29:45.939Z,19.38
2023-04-20T08:30:45.910Z,19.39
2023-04-20T08:31:45.929Z,19.39
2023-04-20T08:32:46.043Z,19.40
2023-04-20T08:33:46.307Z,19.40
2023-04-20T08:34:45.933Z,19.39
2023-04-20T08:35:45.921Z,19.39
2023-04-20T08:36:46.008Z,19.38
2023-04-20T08:37:46.045Z,19.39
2023-04-20T08:38:46.098Z,19.39
2023-04-20T08:39:46.158Z,19.37
2023-04-20T08:40:46.210Z,19.37
2023-04-20T08:41:46.267Z,19.36
2023-04-20T08:42:46.335Z,19.35
2023-04-20T08:43:46.394Z,19.36
2023-04-20T08:44:46.470Z,19.36
2023-04-20T08:45:46.517Z,19.35
2023-04-20T08:46:46.650Z,19.35
2023-04-20T08:47:46.732Z,19.35
2023-04-20T08:48:46.693Z,19.34
2023-04-20T08:49:47.462Z,19.34
2023-04-20T08:50:46.805Z,19.33
2023-04-20T08:51:46.891Z,19.33
2023-04-20T08:52:46.929Z,19.33
2023-04-20T08:53:46.985Z,19.33
2023-04-20T08:54:56.190Z,19.32
2023-04-20T08:55:48.044Z,19.30
2023-04-20T08:56:47.109Z,19.30
2023-04-20T08:57:47.062Z,19.30
2023-04-20T08:58:47.076Z,19.28
2023-04-20T08:59:47.076Z,19.27
2023-04-20T09:00:47.072Z,19.27
2023-04-20T09:01:47.114Z,19.26
2023-04-20T09:02:47.209Z,19.25
2023-04-20T09:03:47.195Z,19.25
2023-04-20T09:04:47.254Z,19.24
2023-04-20T09:05:47.198Z,19.22
2023-04-20T09:06:47.252Z,19.21
2023-04-20T09:07:47.315Z,19.20
2023-04-20T09:08:47.382Z,19.19
2023-04-20T09:09:47.489Z,19.18
2023-04-20T09:10:47.519Z,19.18
2023-04-20T09:11:47.565Z,19.18
2023-04-20T09:12:47.609Z,19.16
2023-04-20T09:13:47.671Z,19.16
2023-04-20T09:14:47.745Z,19.14
2023-04-20T09:15:47.773Z,19.13
2023-04-20T09:16:47.864Z,19.11
2023-04-20T09:17:47.910Z,19.10
2023-04-20T09:18:47.950Z,19.09
2023-04-20T09:19:48.020Z,19.09
2023-04-20T09:20:48.064Z,19.08
2023-04-20T09:21:48.104Z,19.07
2023-04-20T09:22:48.062Z,19.06
2023-04-20T09:23:48.063Z,19.05
2023-04-20T09:24:48.091Z,19.04
2023-04-20T09:25:48.204Z,19.04
2023-04-20T09:26:48.075Z,19.03
2023-04-20T09:27:48.071Z,19.03
2023-04-20T09:28:48.073Z,19.03
2023-04-20T09:29:48.075Z,19.03
2023-04-20T09:30:48.073Z,19.03
2023-04-20T09:31:48.251Z,19.03
2023-04-20T09:32:48.261Z,19.04
2023-04-20T09:33:48.216Z,19.03
2023-04-20T09:34:48.271Z,19.03
2023-04-20T09:35:48.320Z,19.03
2023-04-20T09:36:48.388Z,19.03
2023-04-20T09:37:48.426Z,19.03
2023-04-20T09:38:48.493Z,19.02
2023-04-20T09:39:48.548Z,19.02
2023-04-20T09:40:48.553Z,19.02
2023-04-20T09:41:48.614Z,19.02
2023-04-20T09:42:48.657Z,19.01
2023-04-20T09:43:48.696Z,18.99
2023-04-20T09:44:48.725Z,19.00
2023-04-20T09:45:48.798Z,18.99
2023-04-20T09:46:48.821Z,18.99
2023-04-20T09:47:48.939Z,18.99
2023-04-20T09:48:48.872Z,18.98
2023-04-20T09:49:48.899Z,18.98
2023-04-20T09:50:50.648Z,18.98
2023-04-20T09:51:48.885Z,18.98
2023-04-20T09:52:48.879Z,18.97
2023-04-20T09:53:49.909Z,18.98
2023-04-20T09:54:48.865Z,18.97
2023-04-20T09:55:48.888Z,18.96
2023-04-20T09:56:48.894Z,18.96
2023-04-20T09:57:48.936Z,18.97
2023-04-20T09:58:48.950Z,18.95
2023-04-20T09:59:49.951Z,18.95
2023-04-20T10:00:49.030Z,18.94
2023-04-20T10:01:49.177Z,18.94
2023-04-20T10:02:49.155Z,18.94
2023-04-20T10:03:50.107Z,18.94
2023-04-20T10:04:49.433Z,18.94
2023-04-20T10:05:49.766Z,18.93
2023-04-20T10:06:49.293Z,18.92
2023-04-20T10:07:49.281Z,18.93
2023-04-20T10:08:49.381Z,18.92
2023-04-20T10:09:49.357Z,18.93
2023-04-20T10:10:49.420Z,18.94
2023-04-20T10:11:53.857Z,19.01
2023-04-20T10:12:49.641Z,19.03
2023-04-20T10:13:49.374Z,19.04
2023-04-20T10:14:49.357Z,19.04
2023-04-20T10:15:49.385Z,19.03
2023-04-20T10:16:49.476Z,19.02
2023-04-20T10:17:50.033Z,19.03
2023-04-20T10:18:49.545Z,19.02
2023-04-20T10:19:49.518Z,19.00
2023-04-20T10:20:49.573Z,18.98
2023-04-20T10:21:49.611Z,18.98
2023-04-20T10:22:54.554Z,18.99
2023-04-20T10:23:49.663Z,19.02
2023-04-20T10:24:49.686Z,19.07
2023-04-20T10:25:49.674Z,19.10
2023-04-20T10:26:49.698Z,19.13
2023-04-20T10:27:49.648Z,19.16
2023-04-20T10:28:49.649Z,19.19
2023-04-20T10:29:49.662Z,19.21
2023-04-20T10:30:49.686Z,19.25
2023-04-20T10:31:53.368Z,19.28
2023-04-20T10:32:49.684Z,19.29
2023-04-20T10:33:49.634Z,19.31
2023-04-20T10:34:51.494Z,19.32
2023-04-20T10:36:00.898Z,19.34
2023-04-20T10:36:52.853Z,19.36
2023-04-20T10:37:49.977Z,19.38
2023-04-20T10:38:49.770Z,19.40
2023-04-20T10:39:50.507Z,19.40
2023-04-20T10:40:54.892Z,19.41
2023-04-20T10:41:49.609Z,19.44
2023-04-20T10:42:49.602Z,19.46
2023-04-20T10:43:49.681Z,19.48
2023-04-20T10:44:49.644Z,19.49
2023-04-20T10:45:49.661Z,19.51
2023-04-20T10:46:49.841Z,19.53
2023-04-20T10:47:54.549Z,19.56
2023-04-20T10:48:49.754Z,19.58
2023-04-20T10:49:49.755Z,19.58
2023-04-20T10:50:50.490Z,19.59
2023-04-20T10:51:50.118Z,19.59
2023-04-20T10:52:50.036Z,19.62
2023-04-20T10:53:50.108Z,19.63
2023-04-20T10:54:50.086Z,19.66
2023-04-20T10:55:50.116Z,19.68
2023-04-20T10:56:50.192Z,19.71
2023-04-20T10:57:50.191Z,19.74
2023-04-20T10:58:50.952Z,19.77
2023-04-20T10:59:50.241Z,19.81
2023-04-20T11:00:50.251Z,19.84
2023-04-20T11:01:50.279Z,19.87
2023-04-20T11:02:53.109Z,19.90
2023-04-20T11:03:50.343Z,19.90
2023-04-20T11:04:50.542Z,19.92
2023-04-20T11:05:50.265Z,19.93
2023-04-20T11:06:50.301Z,19.95
2023-04-20T11:07:50.252Z,19.95
2023-04-20T11:08:50.222Z,19.96
2023-04-20T11:09:51.000Z,19.96
2023-04-20T11:11:01.236Z,19.95
2023-04-20T11:11:50.183Z,19.95
2023-04-20T11:12:57.006Z,19.95
2023-04-20T11:13:50.152Z,19.95
2023-04-20T11:14:51.167Z,19.95
2023-04-20T11:15:50.148Z,19.94
2023-04-20T11:16:51.887Z,19.93
2023-04-20T11:17:50.129Z,19.91
2023-04-20T11:18:50.088Z,19.88
2023-04-20T11:19:50.083Z,19.85
2023-04-20T11:20:50.111Z,19.84
2023-04-20T11:21:50.054Z,19.82
2023-04-20T11:22:52.068Z,19.81
2023-04-20T11:23:50.254Z,19.80
2023-04-20T11:24:50.041Z,19.78
2023-04-20T11:25:50.023Z,19.76
2023-04-20T11:26:49.993Z,19.75
2023-04-20T11:27:50.059Z,19.73
2023-04-20T11:28:49.979Z,19.72
2023-04-20T11:29:49.986Z,19.71
2023-04-20T11:30:49.968Z,19.70
2023-04-20T11:31:49.989Z,19.70
2023-04-20T11:32:50.028Z,19.70
2023-04-20T11:33:49.966Z,19.68
2023-04-20T11:34:55.997Z,19.68
2023-04-20T11:35:50.930Z,19.68
2023-04-20T11:36:49.923Z,19.68
2023-04-20T11:37:49.981Z,19.67
2023-04-20T11:38:49.904Z,19.67
2023-04-20T11:39:49.914Z,19.66
2023-04-20T11:40:49.889Z,19.66
2023-04-20T11:41:49.898Z,19.66
2023-04-20T11:42:50.504Z,19.65
2023-04-20T11:43:49.890Z,19.64
2023-04-20T11:44:49.883Z,19.63
2023-04-20T11:45:49.904Z,19.63
2023-04-20T11:46:49.873Z,19.63
2023-04-20T11:47:49.926Z,19.63
2023-04-20T11:48:49.959Z,19.62
2023-04-20T11:49:49.991Z,19.62
2023-04-20T11:50:50.046Z,19.62
2023-04-20T11:51:50.086Z,19.61
2023-04-20T11:52:50.131Z,19.60
2023-04-20T11:53:50.176Z,19.60
2023-04-20T11:54:50.252Z,19.59
2023-04-20T11:55:50.273Z,19.58
2023-04-20T11:56:50.321Z,19.57
2023-04-20T11:57:50.385Z,19.57
2023-04-20T11:58:50.418Z,19.57
2023-04-20T11:59:50.472Z,19.56
2023-04-20T12:00:50.526Z,19.54
2023-04-20T12:01:50.580Z,19.54
2023-04-20T12:02:50.808Z,19.55
2023-04-20T12:03:50.841Z,19.53
2023-04-20T12:04:50.795Z,19.53
2023-04-20T12:05:50.851Z,19.53
2023-04-20T12:06:50.843Z,19.52
2023-04-20T12:07:50.874Z,19.51
2023-04-20T12:08:50.935Z,19.51
2023-04-20T12:09:50.987Z,19.51
2023-04-20T12:10:50.978Z,19.49
2023-04-20T12:11:51.973Z,19.48
2023-04-20T12:12:50.967Z,19.48
2023-04-20T12:13:50.954Z,19.48
2023-04-20T12:14:50.956Z,19.47
2023-04-20T12:15:50.992Z,19.45
2023-04-20T12:16:51.021Z,19.45
2023-04-20T12:17:50.959Z,19.44
2023-04-20T12:18:50.928Z,19.45
2023-04-20T12:19:50.918Z,19.45
2023-04-20T12:20:50.961Z,19.45
2023-04-20T12:21:51.014Z,19.45
2023-04-20T12:22:51.095Z,19.45
2023-04-20T12:23:51.119Z,19.45
2023-04-20T12:24:51.170Z,19.45
2023-04-20T12:25:51.199Z,19.45
2023-04-20T12:26:51.243Z,19.46
2023-04-20T12:27:51.301Z,19.44
2023-04-20T12:28:51.350Z,19.43
2023-04-20T12:29:51.546Z,19.42
2023-04-20T12:30:51.493Z,19.43
2023-04-20T12:31:52.497Z,19.42
2023-04-20T12:32:51.568Z,19.41
2023-04-20T12:33:51.613Z,19.40
2023-04-20T12:34:51.662Z,19.39
2023-04-20T12:35:51.700Z,19.37
2023-04-20T12:36:51.760Z,19.38
2023-04-20T12:37:51.745Z,19.37
2023-04-20T12:38:51.728Z,19.36
2023-04-20T12:39:51.732Z,19.37
2023-04-20T12:40:51.733Z,19.36
2023-04-20T12:41:51.730Z,19.37
2023-04-20T12:42:51.726Z,19.35
2023-04-20T12:43:51.714Z,19.33
2023-04-20T12:44:51.706Z,19.33
2023-04-20T12:45:51.701Z,19.33
2023-04-20T12:46:51.819Z,19.31
2023-04-20T12:47:54.015Z,19.29
2023-04-20T12:48:51.680Z,19.28
2023-04-20T12:49:51.693Z,19.27
2023-04-20T12:50:51.674Z,19.25
2023-04-20T12:51:51.678Z,19.25
2023-04-20T12:52:51.680Z,19.24
2023-04-20T12:53:51.658Z,19.22